Time;durP1;ratioP1;P1;durP2;ratioP2;P2;SDS_P1;SDS_P2;PMS_P1;PMS_P2;Temp;Humidity;BMP_temperature;BMP_pressure;BME280_temperature;BME280_humidity;BME280_pressure;Samples;Min_cycle;Max_cycle;Signal;HPM_P1;HPM_P2
2022/10/28 00:00:50;;;;;;;1.70;1.60;;;;;;;13.83;100.00;99225.06;4116123;28;20202;-47
2022/10/28 00:02:52;;;;;;;3.13;1.50;;;;;;;13.80;100.00;99231.06;4130632;28;20216;-46
2022/10/28 00:04:54;;;;;;;2.63;1.77;;;;;;;13.86;100.00;99227.31;4118086;28;20775;-46
2022/10/28 00:06:56;;;;;;;3.42;2.08;;;;;;;13.88;100.00;99232.53;4129681;28;20229;-46
2022/10/28 00:08:58;;;;;;;4.28;2.38;;;;;;;13.84;100.00;99221.22;4117208;28;20328;-47
2022/10/28 00:11:20;;;;;;;2.35;1.88;;;;;;;13.82;100.00;99223.41;4123696;28;20208;-47
2022/10/28 00:13:22;;;;;;;3.78;2.60;;;;;;;13.83;100.00;99219.56;4130073;28;20209;-46
2022/10/28 00:15:23;;;;;;;5.22;1.98;;;;;;;13.94;100.00;99215.88;4121135;28;20206;-46
2022/10/28 00:17:25;;;;;;;5.30;2.05;;;;;;;13.91;100.00;99221.84;4123835;28;20297;-46
2022/10/28 00:19:27;;;;;;;2.70;2.45;;;;;;;13.70;100.00;99214.41;4130775;28;20236;-46
2022/10/28 00:21:31;;;;;;;3.75;2.22;;;;;;;13.70;100.00;99219.09;4132458;28;20212;-46
2022/10/28 00:23:32;;;;;;;2.78;1.92;;;;;;;13.71;100.00;99221.56;4122383;28;20590;-46
2022/10/28 00:25:34;;;;;;;2.25;2.15;;;;;;;13.82;100.00;99217.03;4130576;28;20236;-46
2022/10/28 00:27:36;;;;;;;2.13;1.92;;;;;;;13.82;100.00;99212.38;4119336;28;20288;-46
2022/10/28 00:29:37;;;;;;;2.17;1.98;;;;;;;13.86;100.00;99208.06;4114250;28;20217;-46
2022/10/28 00:31:39;;;;;;;3.85;2.53;;;;;;;13.80;100.00;99217.31;4114078;28;20206;-46
2022/10/28 00:33:41;;;;;;;1.88;1.33;;;;;;;13.83;100.00;99214.06;4117089;28;20620;-47
2022/10/28 00:35:43;;;;;;;3.58;1.80;;;;;;;13.82;100.00;99217.91;4117236;28;20912;-47
2022/10/28 00:37:44;;;;;;;2.38;2.13;;;;;;;13.86;100.00;99223.72;4121824;28;20650;-46
2022/10/28 00:39:46;;;;;;;2.45;2.05;;;;;;;13.84;100.00;99214.91;4121208;28;20206;-48
2022/10/28 00:41:50;;;;;;;2.33;2.13;;;;;;;13.83;100.00;99214.06;4120312;28;20341;-46
2022/10/28 00:43:54;;;;;;;3.28;1.70;;;;;;;13.84;100.00;99226.72;4121822;28;20225;-48
2022/10/28 00:45:56;;;;;;;3.22;2.50;;;;;;;13.83;100.00;99216.81;4120206;28;20288;-46
2022/10/28 00:48:00;;;;;;;2.88;2.63;;;;;;;13.79;100.00;99218.41;4122142;28;20229;-46
2022/10/28 00:50:40;;;;;;;2.58;1.90;;;;;;;13.80;100.00;99220.06;4132307;28;20630;-46
2022/10/28 00:52:44;;;;;;;4.28;2.65;;;;;;;13.73;100.00;99213.91;4114879;28;20212;-46
2022/10/28 00:54:45;;;;;;;4.10;2.17;;;;;;;13.76;100.00;99218.91;4124017;28;20671;-46
2022/10/28 00:56:55;;;;;;;3.75;2.53;;;;;;;13.78;100.00;99219.47;4135477;28;20234;-47
2022/10/28 00:58:58;;;;;;;2.58;2.33;;;;;;;13.76;100.00;99212.59;4114393;28;20229;-46
2022/10/28 01:01:00;;;;;;;1.95;1.80;;;;;;;13.75;100.00;99213.66;4114913;28;20319;-46
2022/10/28 01:03:02;;;;;;;3.03;2.60;;;;;;;13.78;100.00;99211.22;4131963;28;20241;-48
2022/10/28 01:05:04;;;;;;;7.30;2.63;;;;;;;13.79;100.00;99212.91;4117159;28;20330;-46
2022/10/28 01:07:06;;;;;;;4.57;2.92;;;;;;;13.74;100.00;99206.47;4126451;28;20272;-46
2022/10/28 01:09:08;;;;;;;2.80;2.50;;;;;;;13.74;100.00;99212.84;4131026;28;20301;-46
2022/10/28 01:11:16;;;;;;;4.20;2.90;;;;;;;13.79;100.00;99212.91;4134409;28;20201;-46
2022/10/28 01:13:21;;;;;;;3.53;2.97;;;;;;;13.81;100.00;99207.97;4133127;28;20786;-46
2022/10/28 01:15:32;;;;;;;3.38;2.15;;;;;;;13.82;100.00;99212.38;4133406;28;20205;-46
2022/10/28 01:18:07;;;;;;;3.80;2.60;;;;;;;13.79;100.00;99201.06;4119381;28;20233;-46
2022/10/28 01:20:21;;;;;;;3.67;2.13;;;;;;;13.78;100.00;99200.22;4121790;28;20560;-46
2022/10/28 01:22:26;;;;;;;3.10;2.72;;;;;;;13.87;100.00;99195.97;4120918;28;20237;-47
2022/10/28 01:24:53;;;;;;;3.72;2.53;;;;;;;13.78;100.00;99197.47;4124186;28;20210;-46
2022/10/28 01:27:38;;;;;;;8.77;2.45;;;;;;;13.76;100.00;99201.59;4132480;28;20233;-46
2022/10/28 01:30:05;;;;;;;3.70;3.15;;;;;;;13.76;100.00;99202.41;4122570;28;20229;-47
2022/10/28 01:32:21;;;;;;;2.60;2.40;;;;;;;13.74;100.00;99199.06;4106650;28;20210;-46
2022/10/28 01:34:25;;;;;;;3.08;2.22;;;;;;;13.78;100.00;99200.22;4134206;28;20210;-46
2022/10/28 01:36:27;;;;;;;3.00;2.65;;;;;;;13.74;100.00;99196.31;4131719;28;20344;-47
2022/10/28 01:38:35;;;;;;;6.15;2.88;;;;;;;13.72;100.00;99194.91;4117159;28;20680;-47
2022/10/28 01:40:58;;;;;;;3.42;3.13;;;;;;;13.74;100.00;99188.06;4106992;28;20202;-46
2022/10/28 01:43:08;;;;;;;5.20;2.70;;;;;;;13.76;100.00;99185.88;4133274;28;20206;-46
2022/10/28 01:45:18;;;;;;;3.67;3.05;;;;;;;13.76;100.00;99177.63;4119838;28;20305;-46
2022/10/28 01:47:31;;;;;;;3.47;2.60;;;;;;;13.72;100.00;99179.25;4131805;28;20225;-46
2022/10/28 01:49:49;;;;;;;2.72;2.45;;;;;;;13.68;100.00;99171.75;4121083;28;20206;-47
2022/10/28 01:51:54;;;;;;;3.30;2.58;;;;;;;13.67;100.00;99164.56;4123826;28;20198;-47
2022/10/28 01:53:57;;;;;;;2.50;2.15;;;;;;;13.75;100.00;99156.72;4138737;28;20711;-47
2022/10/28 01:56:04;;;;;;;4.05;3.75;;;;;;;13.68;100.00;99158.81;4139882;28;20221;-46
2022/10/28 01:58:08;;;;;;;2.28;1.98;;;;;;;13.72;100.00;99146.25;4124627;28;20206;-47
2022/10/28 02:00:10;;;;;;;4.20;2.47;;;;;;;13.66;100.00;99143.66;4123019;28;20301;-46
2022/10/28 02:02:14;;;;;;;2.72;2.53;;;;;;;13.63;100.00;99145.00;4119118;28;20212;-47
2022/10/28 02:04:15;;;;;;;4.57;2.17;;;;;;;13.65;100.00;99137.34;4114905;28;20210;-47
2022/10/28 02:06:23;;;;;;;3.35;2.22;;;;;;;13.62;100.00;99140.59;4120041;28;20242;-46
2022/10/28 02:08:39;;;;;;;4.55;3.15;;;;;;;13.65;100.00;99140.09;4112475;28;20301;-48
2022/10/28 02:10:53;;;;;;;6.25;3.78;;;;;;;13.62;100.00;99140.59;4120252;28;20202;-46
2022/10/28 02:12:56;;;;;;;3.05;2.80;;;;;;;13.61;100.00;99138.94;4118880;28;20665;-47
2022/10/28 02:15:13;;;;;;;4.55;4.15;;;;;;;13.70;100.00;99129.13;4122678;28;20705;-47
2022/10/28 02:17:30;;;;;;;5.28;2.80;;;;;;;13.56;100.00;99119.59;4125291;28;20265;-46
2022/10/28 02:19:43;;;;;;;3.05;2.65;;;;;;;13.63;100.00;99120.25;4132720;28;20204;-46
2022/10/28 02:22:02;;;;;;;3.42;2.50;;;;;;;13.61;100.00;99122.44;4133633;28;20224;-46
2022/10/28 02:24:21;;;;;;;3.38;2.75;;;;;;;13.60;100.00;99119.94;4119150;28;20229;-47
2022/10/28 02:26:28;;;;;;;3.30;3.03;;;;;;;13.61;100.00;99116.94;4122934;28;20237;-47
2022/10/28 02:28:55;;;;;;;2.90;2.42;;;;;;;13.64;100.00;99119.16;4133584;28;20207;-46
2022/10/28 02:31:01;;;;;;;5.80;3.28;;;;;;;13.61;100.00;99111.44;4132234;28;20217;-46
2022/10/28 02:33:04;;;;;;;4.32;2.05;;;;;;;13.61;100.00;99116.09;4118232;28;20209;-47
2022/10/28 02:35:11;;;;;;;3.03;2.67;;;;;;;13.63;100.00;99119.44;4118424;28;20211;-46
2022/10/28 02:37:19;;;;;;;4.07;3.28;;;;;;;13.63;100.00;99120.25;4121257;28;20236;-47
2022/10/28 02:39:33;;;;;;;9.73;3.03;;;;;;;13.60;100.00;99120.78;4119571;28;20209;-46
2022/10/28 02:41:54;;;;;;;3.60;2.78;;;;;;;13.58;100.00;99117.41;4115323;28;20695;-46
2022/10/28 02:43:59;;;;;;;2.63;2.42;;;;;;;13.61;100.00;99116.09;4107906;28;20207;-46
2022/10/28 02:46:03;;;;;;;2.53;2.17;;;;;;;13.67;100.00;99112.31;4115389;28;20317;-46
2022/10/28 02:48:08;;;;;;;2.97;2.40;;;;;;;13.63;100.00;99114.75;4150082;28;20201;-47
2022/10/28 02:50:14;;;;;;;3.60;2.78;;;;;;;13.59;100.00;99113.59;4116251;28;20209;-46
2022/10/28 02:52:17;;;;;;;2.90;2.63;;;;;;;13.61;100.00;99116.94;4124101;28;20547;-46
2022/10/28 02:54:36;;;;;;;5.43;2.40;;;;;;;13.55;100.00;99112.44;4121787;28;20237;-46
2022/10/28 02:56:48;;;;;;;4.05;3.20;;;;;;;13.58;100.00;99122.91;4124605;28;20222;-48
2022/10/28 02:58:50;;;;;;;2.53;2.30;;;;;;;13.64;100.00;99110.09;4115770;28;20202;-46
2022/10/28 03:00:54;;;;;;;3.03;2.83;;;;;;;13.55;100.00;99106.94;4120075;28;20248;-47
2022/10/28 03:02:56;;;;;;;4.00;3.10;;;;;;;13.62;100.00;99113.09;4130310;28;20205;-47
2022/10/28 03:04:58;;;;;;;4.25;2.83;;;;;;;13.57;100.00;99115.75;4119842;28;20213;-46
2022/10/28 03:06:59;;;;;;;2.47;2.13;;;;;;;13.56;100.00;99105.84;4131548;28;20796;-46
2022/10/28 03:09:01;;;;;;;3.90;2.42;;;;;;;13.56;100.00;99108.59;4117456;28;20230;-47
2022/10/28 03:11:03;;;;;;;3.25;2.60;;;;;;;13.53;100.00;99103.63;4115401;28;20210;-46
2022/10/28 03:13:05;;;;;;;4.25;2.47;;;;;;;13.57;100.00;99102.00;4132453;28;20297;-46
2022/10/28 03:15:07;;;;;;;3.05;2.53;;;;;;;13.56;100.00;99099.53;4130310;28;20220;-47
2022/10/28 03:17:08;;;;;;;2.30;1.92;;;;;;;13.60;100.00;99097.94;4131056;28;20317;-47
2022/10/28 03:19:10;;;;;;;10.88;3.15;;;;;;;13.58;100.00;99100.91;4120561;28;20208;-47
2022/10/28 03:21:12;;;;;;;2.55;2.35;;;;;;;13.66;100.00;99086.75;4135732;28;20206;-47
2022/10/28 03:23:13;;;;;;;2.20;2.00;;;;;;;13.56;100.00;99097.59;4117543;28;20218;-47
2022/10/28 03:25:15;;;;;;;4.82;3.30;;;;;;;13.60;100.00;99107.03;4149316;28;20208;-46
2022/10/28 03:27:17;;;;;;;4.18;2.80;;;;;;;13.57;100.00;99099.25;4117544;28;20237;-47
2022/10/28 03:29:19;;;;;;;3.58;2.22;;;;;;;13.58;100.00;99089.91;4120946;28;20217;-46
2022/10/28 03:31:21;;;;;;;2.92;2.25;;;;;;;13.50;100.00;99101.38;4121364;28;20738;-46
2022/10/28 03:33:23;;;;;;;2.38;2.17;;;;;;;13.49;100.00;99110.72;4132374;28;20197;-46
2022/10/28 03:35:25;;;;;;;2.63;2.33;;;;;;;13.50;100.00;99103.31;4129879;28;20213;-47
2022/10/28 03:37:26;;;;;;;2.45;2.25;;;;;;;13.48;100.00;99100.81;4122819;28;20787;-47
2022/10/28 03:39:28;;;;;;;3.47;3.17;;;;;;;13.48;100.00;99103.56;4132955;28;20217;-46
2022/10/28 03:41:30;;;;;;;5.75;4.00;;;;;;;13.47;100.00;99110.13;4129803;28;20582;-46
2022/10/28 03:43:31;;;;;;;2.05;1.77;;;;;;;13.63;100.00;99112.00;4112006;28;20244;-47
2022/10/28 03:45:33;;;;;;;8.77;2.35;;;;;;;13.66;100.00;99102.41;4101623;28;20711;-47
2022/10/28 03:47:35;;;;;;;2.30;2.10;;;;;;;13.51;100.00;99100.28;4147406;28;20208;-46
2022/10/28 03:49:36;;;;;;;2.65;2.35;;;;;;;13.59;100.00;99102.63;4120010;28;20460;-46
2022/10/28 03:51:38;;;;;;;3.47;2.35;;;;;;;13.40;100.00;99103.16;4119267;28;20572;-46
2022/10/28 03:53:40;;;;;;;2.15;1.95;;;;;;;13.34;100.00;99105.00;4116236;28;20710;-46
2022/10/28 03:55:41;;;;;;;4.13;3.47;;;;;;;13.25;100.00;99101.00;4100541;28;20207;-46
2022/10/28 03:57:43;;;;;;;3.83;3.28;;;;;;;13.40;100.00;99104.00;4119492;28;20218;-46
2022/10/28 03:59:45;;;;;;;2.72;2.13;;;;;;;13.33;100.00;99113.50;4114941;28;20365;-46
2022/10/28 04:01:46;;;;;;;3.22;2.13;;;;;;;13.34;100.00;99113.25;4122586;28;20568;-46
2022/10/28 04:03:48;;;;;;;3.20;2.65;;;;;;;13.34;100.00;99117.91;4133236;28;20296;-47
2022/10/28 04:05:50;;;;;;;4.45;2.20;;;;;;;13.32;100.00;99107.19;4120098;28;20261;-46
2022/10/28 04:07:53;;;;;;;3.67;2.35;;;;;;;13.34;100.00;99110.50;4118313;28;20237;-47
2022/10/28 04:09:54;;;;;;;2.80;2.50;;;;;;;13.25;100.00;99109.25;4123855;28;20521;-46
2022/10/28 04:11:56;;;;;;;5.03;2.90;;;;;;;13.27;100.00;99109.84;4132309;28;20313;-46
2022/10/28 04:13:57;;;;;;;5.68;2.85;;;;;;;13.16;100.00;99113.53;4118006;28;20221;-46
2022/10/28 04:16:00;;;;;;;2.55;2.35;;;;;;;13.20;100.00;99114.69;4118528;28;20225;-46
2022/10/28 04:18:02;;;;;;;3.47;2.30;;;;;;;13.21;100.00;99116.34;4121495;28;20772;-46
2022/10/28 04:20:05;;;;;;;4.03;2.47;;;;;;;13.25;100.00;99112.00;4129808;28;20690;-46
2022/10/28 04:22:08;;;;;;;3.05;2.10;;;;;;;13.20;100.00;99111.94;4119017;28;20205;-47
2022/10/28 04:24:09;;;;;;;4.05;3.33;;;;;;;13.28;100.00;99103.25;4132068;28;20232;-46
2022/10/28 04:26:11;;;;;;;2.40;2.00;;;;;;;13.20;100.00;99109.19;4112924;28;20226;-46
2022/10/28 04:28:13;;;;;;;3.00;2.47;;;;;;;13.15;100.00;99100.03;4132540;28;20348;-46
2022/10/28 04:30:14;;;;;;;2.95;2.03;;;;;;;13.14;100.00;99099.22;4118760;28;20207;-47
2022/10/28 04:32:16;;;;;;;3.03;2.08;;;;;;;13.15;100.00;99103.63;4131603;28;21010;-46
2022/10/28 04:34:18;;;;;;;3.63;2.63;;;;;;;13.14;100.00;99099.22;4117302;28;20222;-46
2022/10/28 04:36:19;;;;;;;2.47;2.28;;;;;;;13.06;100.00;99098.81;4116485;28;20813;-46
2022/10/28 04:38:22;;;;;;;3.85;2.65;;;;;;;13.14;100.00;99099.22;4131848;28;20674;-46
2022/10/28 04:40:23;;;;;;;2.30;2.10;;;;;;;13.03;100.00;99094.63;4122588;28;20212;-46
2022/10/28 04:42:25;;;;;;;2.80;2.22;;;;;;;13.03;100.00;99091.88;4134686;28;20227;-47
2022/10/28 04:44:26;;;;;;;4.85;2.50;;;;;;;13.02;100.00;99092.97;4133397;28;20216;-46
2022/10/28 04:46:28;;;;;;;2.63;2.42;;;;;;;12.94;100.00;99082.38;4123529;28;20595;-46
2022/10/28 04:48:30;;;;;;;2.35;2.10;;;;;;;12.94;100.00;99093.38;4118237;28;20214;-46
2022/10/28 04:50:32;;;;;;;3.72;2.53;;;;;;;12.98;100.00;99083.56;4119802;28;20210;-46
2022/10/28 04:52:34;;;;;;;3.08;2.45;;;;;;;13.04;100.00;99087.25;4151906;28;21097;-46
2022/10/28 04:54:35;;;;;;;3.85;3.25;;;;;;;12.98;100.00;99091.81;4127935;28;20711;-46
2022/10/28 04:56:37;;;;;;;5.15;2.70;;;;;;;12.97;100.00;99081.09;4117923;28;20226;-46
2022/10/28 04:58:39;;;;;;;2.33;1.88;;;;;;;12.95;100.00;99085.97;4115256;28;20225;-47
2022/10/28 05:00:40;;;;;;;8.13;2.65;;;;;;;12.92;100.00;99084.56;4116367;28;20210;-47
2022/10/28 05:02:42;;;;;;;2.08;1.88;;;;;;;12.96;100.00;99080.25;4111834;28;20233;-47
2022/10/28 05:04:46;;;;;;;3.45;2.28;;;;;;;13.02;100.00;99079.25;4117156;28;20206;-47
2022/10/28 05:06:48;;;;;;;2.28;2.13;;;;;;;12.94;100.00;99079.63;4133723;28;20229;-46
2022/10/28 05:08:50;;;;;;;3.00;2.60;;;;;;;12.93;100.00;99079.88;4132443;28;20590;-46
2022/10/28 05:10:51;;;;;;;2.92;2.45;;;;;;;12.93;100.00;99080.72;4116584;28;20206;-46
2022/10/28 05:12:56;;;;;;;2.95;2.20;;;;;;;12.99;100.00;99084.41;4133089;28;20204;-46
2022/10/28 05:14:58;;;;;;;3.63;2.38;;;;;;;13.03;100.00;99080.09;4126940;28;20297;-47
2022/10/28 05:16:59;;;;;;;7.30;2.10;;;;;;;12.86;100.00;99077.31;4126166;28;20225;-46
2022/10/28 05:19:01;;;;;;;2.83;2.60;;;;;;;12.93;100.00;99088.97;4123416;28;20289;-46
2022/10/28 05:21:03;;;;;;;6.35;2.50;;;;;;;12.89;100.00;99074.06;4128893;28;20633;-46
2022/10/28 05:23:05;;;;;;;4.53;2.55;;;;;;;12.89;100.00;99085.03;4148732;28;20212;-47
2022/10/28 05:25:07;;;;;;;2.05;1.85;;;;;;;12.88;100.00;99080.63;4118324;28;20297;-46
2022/10/28 05:27:08;;;;;;;3.65;2.38;;;;;;;12.93;100.00;99083.47;4122588;28;20644;-46
2022/10/28 05:29:10;;;;;;;2.75;2.40;;;;;;;12.89;100.00;99079.56;4131804;28;20205;-46
2022/10/28 05:31:12;;;;;;;2.50;2.00;;;;;;;12.90;100.00;99086.72;4117658;28;20210;-46
2022/10/28 05:33:13;;;;;;;2.35;1.90;;;;;;;12.97;100.00;99081.09;4133790;28;20202;-46
2022/10/28 05:35:15;;;;;;;5.13;2.05;;;;;;;12.87;100.00;99078.13;4118377;28;20293;-46
2022/10/28 05:37:17;;;;;;;3.95;2.97;;;;;;;12.84;100.00;99076.72;4128134;28;20272;-46
2022/10/28 05:39:19;;;;;;;2.22;2.03;;;;;;;12.84;100.00;99082.22;4117522;28;20214;-46
2022/10/28 05:41:20;;;;;;;3.17;1.88;;;;;;;12.84;100.00;99071.22;4122124;28;20214;-46
2022/10/28 05:43:24;;;;;;;2.97;2.25;;;;;;;12.82;100.00;99084.38;4117576;28;20211;-46
2022/10/28 05:45:25;;;;;;;3.75;2.33;;;;;;;12.72;100.00;99072.41;4130906;28;20717;-46
2022/10/28 05:47:27;;;;;;;2.92;2.70;;;;;;;12.90;100.00;99081.22;4119201;28;20244;-46
2022/10/28 05:49:29;;;;;;;2.65;2.45;;;;;;;12.81;100.00;99079.97;4130234;28;20352;-46
2022/10/28 05:51:31;;;;;;;4.88;2.97;;;;;;;12.81;100.00;99088.22;4121806;28;20242;-47
2022/10/28 05:53:32;;;;;;;3.38;3.10;;;;;;;12.86;100.00;99081.97;4131617;28;20667;-46
2022/10/28 05:55:34;;;;;;;3.38;3.08;;;;;;;12.81;100.00;99085.47;4116733;28;20326;-46
2022/10/28 05:57:36;;;;;;;5.13;2.63;;;;;;;12.75;100.00;99083.72;4118882;28;20205;-46
2022/10/28 05:59:37;;;;;;;3.38;2.00;;;;;;;12.76;100.00;99090.88;4121731;28;20206;-48
2022/10/28 06:01:39;;;;;;;2.75;2.55;;;;;;;12.86;100.00;99090.22;4115257;28;20243;-46
2022/10/28 06:03:41;;;;;;;3.53;2.97;;;;;;;12.81;100.00;99085.47;4130835;28;20216;-48
2022/10/28 06:05:44;;;;;;;3.15;2.85;;;;;;;12.70;100.00;99094.63;4122763;28;20714;-46
2022/10/28 06:07:45;;;;;;;3.85;3.45;;;;;;;12.66;100.00;99101.72;4118482;28;20304;-46
2022/10/28 06:09:49;;;;;;;3.72;2.58;;;;;;;12.62;100.00;99084.06;4115040;28;20213;-47
2022/10/28 06:11:51;;;;;;;4.20;3.55;;;;;;;12.67;100.00;99097.88;4121432;28;20655;-47
2022/10/28 06:13:52;;;;;;;3.50;3.05;;;;;;;12.66;100.00;99089.88;4111557;28;20258;-49
2022/10/28 06:15:55;;;;;;;3.17;2.60;;;;;;;12.57;100.00;99091.38;4115703;28;20332;-46
2022/10/28 06:17:57;;;;;;;3.08;2.65;;;;;;;12.44;100.00;99092.53;4122384;28;20206;-46
2022/10/28 06:19:58;;;;;;;3.40;2.85;;;;;;;12.54;100.00;99092.72;4119867;28;20313;-47
2022/10/28 06:22:00;;;;;;;3.35;2.97;;;;;;;12.51;100.00;99090.44;4117467;28;20273;-47
2022/10/28 06:24:02;;;;;;;3.35;3.05;;;;;;;12.50;100.00;99096.22;4119698;28;20225;-47
2022/10/28 06:26:04;;;;;;;3.08;2.88;;;;;;;12.51;100.00;99104.16;4116044;28;20240;-46
2022/10/28 06:28:07;;;;;;;5.18;2.40;;;;;;;12.55;100.00;99097.13;4121182;28;20226;-46
2022/10/28 06:30:12;;;;;;;2.85;2.05;;;;;;;12.60;100.00;99108.19;4114916;28;20206;-46
2022/10/28 06:32:14;;;;;;;4.80;3.05;;;;;;;12.77;100.00;99111.75;4128222;28;20206;-46
2022/10/28 06:34:16;;;;;;;3.85;3.22;;;;;;;12.69;100.00;99109.44;4120545;28;20787;-46
2022/10/28 06:36:18;;;;;;;2.88;2.60;;;;;;;12.67;100.00;99108.03;4118286;28;20619;-46
2022/10/28 06:38:19;;;;;;;3.22;2.90;;;;;;;12.66;100.00;99114.59;4118872;28;20211;-47
2022/10/28 06:40:22;;;;;;;2.78;2.38;;;;;;;12.75;100.00;99119.44;4136310;28;20220;-47
2022/10/28 06:42:24;;;;;;;2.17;2.00;;;;;;;12.74;100.00;99119.66;4125948;28;20228;-48
2022/10/28 06:44:28;;;;;;;2.88;2.35;;;;;;;12.74;100.00;99115.03;4124320;28;20667;-46
2022/10/28 06:46:30;;;;;;;3.20;2.97;;;;;;;12.75;100.00;99121.34;4133495;28;20316;-47
2022/10/28 06:48:32;;;;;;;8.38;2.63;;;;;;;12.74;100.00;99119.66;4123943;28;20304;-48
2022/10/28 06:50:37;;;;;;;6.10;2.83;;;;;;;12.72;100.00;99128.19;4124289;28;20209;-47
2022/10/28 06:52:38;;;;;;;8.25;3.00;;;;;;;12.75;100.00;99122.19;4122146;28;20248;-47
2022/10/28 06:54:42;;;;;;;3.80;2.78;;;;;;;12.83;100.00;99132.75;4117883;28;20210;-46
2022/10/28 06:56:46;;;;;;;3.70;2.88;;;;;;;12.79;100.00;99120.59;4120567;28;20305;-48
2022/10/28 06:58:52;;;;;;;3.53;3.22;;;;;;;12.80;100.00;99122.28;4118781;28;20206;-46
2022/10/28 07:00:54;;;;;;;4.38;2.70;;;;;;;12.82;100.00;99122.00;4130680;28;20298;-47
2022/10/28 07:02:56;;;;;;;4.70;3.05;;;;;;;12.83;100.00;99124.50;4123228;28;20318;-46
2022/10/28 07:04:58;;;;;;;5.05;3.28;;;;;;;12.84;100.00;99126.16;4119072;28;20862;-47
2022/10/28 07:06:59;;;;;;;2.70;2.50;;;;;;;12.85;100.00;99130.56;4134109;28;20257;-46
2022/10/28 07:09:01;;;;;;;3.28;2.47;;;;;;;13.03;100.00;99124.88;4122426;28;20245;-47
2022/10/28 07:11:03;;;;;;;9.27;3.30;;;;;;;12.90;100.00;99129.84;4122796;28;20217;-46
2022/10/28 07:13:05;;;;;;;4.20;3.30;;;;;;;12.87;100.00;99125.69;4125456;28;20293;-46
2022/10/28 07:15:07;;;;;;;3.40;2.55;;;;;;;12.93;100.00;99129.34;4135968;28;20222;-47
2022/10/28 07:17:08;;;;;;;4.25;3.13;;;;;;;12.94;100.00;99129.09;4128604;28;20253;-47
2022/10/28 07:19:10;;;;;;;3.42;3.15;;;;;;;12.99;100.00;99134.72;4133477;28;20305;-47
2022/10/28 07:21:13;;;;;;;4.10;3.67;;;;;;;13.07;100.00;99142.53;4126498;28;20210;-47
2022/10/28 07:23:15;;;;;;;3.90;3.03;;;;;;;13.10;100.00;99135.69;4112221;28;20875;-47
2022/10/28 07:25:16;;;;;;;3.67;2.72;;;;;;;13.27;100.00;99137.34;4118278;28;20292;-46
2022/10/28 07:27:18;;;;;;;3.40;2.90;;;;;;;13.14;100.00;99140.44;4127544;28;20252;-47
2022/10/28 07:29:20;;;;;;;3.13;2.83;;;;;;;13.13;100.00;99136.03;4118216;28;20798;-46
2022/10/28 07:31:26;;;;;;;3.38;3.08;;;;;;;13.17;100.00;99139.91;4116834;28;20217;-49
2022/10/28 07:33:28;;;;;;;8.68;3.78;;;;;;;13.21;100.00;99137.50;4100344;28;20230;-47
2022/10/28 07:35:30;;;;;;;3.17;2.90;;;;;;;13.24;100.00;99139.75;4141597;28;20295;-46
2022/10/28 07:37:32;;;;;;;2.80;2.60;;;;;;;13.28;100.00;99141.75;4111406;28;20222;-46
2022/10/28 07:39:33;;;;;;;4.50;3.13;;;;;;;13.32;100.00;99139.31;4111452;28;20215;-46
2022/10/28 07:41:36;;;;;;;5.05;3.40;;;;;;;13.34;100.00;99153.66;4128728;28;20347;-47
2022/10/28 07:43:38;;;;;;;8.82;4.15;;;;;;;13.35;100.00;99145.16;4128691;28;20219;-47
2022/10/28 07:45:40;;;;;;;3.45;2.72;;;;;;;13.40;100.00;99158.13;4127051;28;20743;-46
2022/10/28 07:47:42;;;;;;;4.00;3.10;;;;;;;13.44;100.00;99149.13;4115182;28;20264;-46
2022/10/28 07:49:44;;;;;;;3.30;3.00;;;;;;;13.51;100.00;99155.28;4128659;28;20217;-47
2022/10/28 07:51:46;;;;;;;6.90;2.67;;;;;;;13.53;100.00;99161.38;4125418;28;20212;-46
2022/10/28 07:53:48;;;;;;;3.28;2.88;;;;;;;13.57;100.00;99159.75;4115914;28;20643;-46
2022/10/28 07:56:01;;;;;;;3.45;2.63;;;;;;;13.59;100.00;99157.63;4130266;28;20221;-46
2022/10/28 07:58:03;;;;;;;6.45;2.90;;;;;;;13.66;100.00;99157.41;4114062;28;20279;-46
2022/10/28 08:00:06;;;;;;;3.50;2.72;;;;;;;13.63;100.00;99158.75;4118083;28;20206;-46
2022/10/28 08:02:13;;;;;;;3.17;2.35;;;;;;;13.62;100.00;99167.25;4119099;28;20327;-46
2022/10/28 08:04:15;;;;;;;3.38;3.08;;;;;;;13.68;100.00;99161.59;4132619;28;20217;-47
2022/10/28 08:06:18;;;;;;;2.60;2.38;;;;;;;13.73;100.00;99158.91;4121322;28;20806;-47
2022/10/28 08:08:20;;;;;;;4.03;2.15;;;;;;;13.73;100.00;99158.06;4113688;28;20228;-46
2022/10/28 08:10:21;;;;;;;3.10;2.35;;;;;;;13.74;100.00;99157.81;4119522;28;20225;-51
2022/10/28 08:12:23;;;;;;;5.85;2.90;;;;;;;13.76;100.00;99155.63;4120607;28;20258;-46
2022/10/28 08:14:25;;;;;;;4.22;2.25;;;;;;;13.79;100.00;99163.38;4132426;28;20322;-46
2022/10/28 08:16:27;;;;;;;4.53;3.08;;;;;;;13.82;100.00;99171.13;4116095;28;20221;-47
2022/10/28 08:18:29;;;;;;;2.30;2.03;;;;;;;13.76;100.00;99158.38;4121102;28;20214;-46
2022/10/28 08:20:31;;;;;;;2.78;2.55;;;;;;;13.77;100.00;99162.78;4119931;28;20232;-46
2022/10/28 08:22:33;;;;;;;3.55;3.25;;;;;;;13.82;100.00;99160.13;4118847;28;20202;-46
2022/10/28 08:24:35;;;;;;;2.78;2.38;;;;;;;13.85;100.00;99162.38;4118179;28;20679;-46
2022/10/28 08:26:37;;;;;;;2.67;2.47;;;;;;;13.86;100.00;99166.78;4114206;28;20413;-46
2022/10/28 08:28:39;;;;;;;1.98;1.77;;;;;;;13.91;100.00;99158.56;4119645;28;20225;-46
2022/10/28 08:30:41;;;;;;;3.83;1.85;;;;;;;13.91;100.00;99155.00;4121755;28;20684;-45
2022/10/28 08:32:57;;;;;;;3.53;3.17;;;;;;;14.29;100.00;99158.53;4117983;28;20297;-46
2022/10/28 08:34:59;;;;;;;3.92;2.50;;;;;;;14.42;100.00;99169.16;4132401;28;20854;-46
2022/10/28 08:37:01;;;;;;;3.95;2.55;;;;;;;14.98;100.00;99163.09;4117750;28;20735;-47
2022/10/28 08:39:03;;;;;;;2.40;2.20;;;;;;;15.38;100.00;99170.88;4122075;28;20280;-46
2022/10/28 08:41:21;;;;;;;2.72;2.53;;;;;;;16.22;100.00;99173.28;4120675;28;20578;-46
2022/10/28 08:43:51;;;;;;;3.65;3.20;;;;;;;16.46;100.00;99171.75;4128044;28;20234;-46
2022/10/28 08:46:34;;;;;;;7.65;2.42;;;;;;;17.43;100.00;99173.28;4124053;28;20260;-46
2022/10/28 08:48:36;;;;;;;6.13;2.95;;;;;;;17.74;98.84;99174.06;4110933;28;20233;-46
2022/10/28 08:50:59;;;;;;;2.88;1.88;;;;;;;18.11;98.58;99157.91;4126346;28;20205;-47
2022/10/28 08:53:10;;;;;;;2.10;1.70;;;;;;;18.45;96.01;99158.88;4119565;28;20293;-46
2022/10/28 08:55:18;;;;;;;2.95;2.03;;;;;;;18.66;95.34;99154.88;4128491;28;20849;-46
2022/10/28 08:57:24;;;;;;;9.07;1.92;;;;;;;19.16;94.16;99157.28;4128804;28;20226;-47
2022/10/28 08:59:32;;;;;;;4.22;2.25;;;;;;;19.88;94.80;99157.16;4118396;28;20587;-47
2022/10/28 09:01:58;;;;;;;4.47;1.92;;;;;;;20.35;88.60;99169.16;4146247;28;20291;-47
2022/10/28 09:04:04;;;;;;;4.30;2.03;;;;;;;20.14;89.90;99162.19;4116005;28;20268;-47
2022/10/28 09:06:08;;;;;;;6.28;2.28;;;;;;;20.45;88.27;99179.31;4117281;28;20251;-47
2022/10/28 09:08:24;;;;;;;2.10;1.90;;;;;;;20.53;89.17;99175.88;4119649;28;20258;-47
2022/10/28 09:10:50;;;;;;;1.75;1.52;;;;;;;20.30;86.98;99165.63;4115771;28;20759;-46
2022/10/28 09:13:01;;;;;;;2.30;1.95;;;;;;;20.85;85.66;99173.19;4130024;28;20198;-47
2022/10/28 09:15:19;;;;;;;3.67;1.85;;;;;;;21.04;84.83;99177.66;4121074;28;20232;-46
2022/10/28 09:17:30;;;;;;;3.70;1.90;;;;;;;21.48;85.32;99171.66;4133113;28;20232;-46
2022/10/28 09:19:52;;;;;;;3.00;1.85;;;;;;;21.60;83.27;99172.84;4131203;28;20200;-47
2022/10/28 09:22:22;;;;;;;3.38;1.73;;;;;;;21.91;81.55;99178.72;4122182;28;20233;-46
2022/10/28 09:24:53;;;;;;;2.15;1.85;;;;;;;21.91;85.22;99187.06;4134663;28;20243;-46
2022/10/28 09:27:33;;;;;;;2.53;2.00;;;;;;;22.41;80.59;99183.28;4130110;28;21185;-46
2022/10/28 09:29:51;;;;;;;9.52;1.70;;;;;;;22.85;81.50;99184.28;4119392;28;21486;-47
2022/10/28 09:32:21;;;;;;;2.88;1.58;;;;;;;23.23;78.06;99182.88;4131094;28;20202;-46
2022/10/28 09:34:42;;;;;;;2.60;1.73;;;;;;;23.64;75.87;99179.91;4130077;28;20205;-46
2022/10/28 09:36:54;;;;;;;1.58;1.27;;;;;;;23.63;76.51;99178.25;4132492;28;20229;-46
2022/10/28 09:39:00;;;;;;;2.25;1.45;;;;;;;23.73;73.12;99171.22;4121478;28;20205;-48
2022/10/28 09:41:22;;;;;;;1.77;0.90;;;;;;;23.60;73.35;99168.53;4117520;28;20216;-46
2022/10/28 09:43:33;;;;;;;2.10;1.58;;;;;;;23.92;71.65;99167.44;4117186;28;20220;-47
2022/10/28 09:45:36;;;;;;;4.75;1.60;;;;;;;24.00;72.03;99165.50;4146114;28;20207;-48